Time;durP1;ratioP1;P1;durP2;ratioP2;P2;SDS_P1;SDS_P2;PMS_P1;PMS_P2;Temp;Humidity;BMP_temperature;BMP_pressure;BME280_temperature;BME280_humidity;BME280_pressure;Samples;Min_cycle;Max_cycle;Signal;HPM_P1;HPM_P2
2022/02/24 00:00:55;;;;;;;17.00;10.50;;;8.30;1.00;8.30;100863.00;;;;5019449;28;20465;-80
2022/02/24 00:03:26;;;;;;;12.17;7.50;;;8.00;1.00;8.40;100876.00;;;;5033494;28;20634;-79
2022/02/24 00:05:56;;;;;;;12.00;8.73;;;8.10;1.00;8.40;100867.00;;;;5020828;28;20518;-79
2022/02/24 00:08:24;;;;;;;12.50;7.90;;;8.10;1.00;8.40;100863.00;;;;5014183;28;20963;-79
2022/02/24 00:10:53;;;;;;;12.93;8.90;;;8.10;1.00;8.40;100876.00;;;;5017549;28;20459;-79
2022/02/24 00:13:21;;;;;;;13.20;9.27;;;8.10;1.00;8.30;100865.00;;;;5014708;28;20484;-79
2022/02/24 00:15:50;;;;;;;14.37;8.27;;;8.10;1.00;8.40;100884.00;;;;5012254;28;20499;-80
2022/02/24 00:18:18;;;;;;;12.23;8.27;;;8.10;1.00;8.50;100884.00;;;;5015098;28;20458;-79
2022/02/24 00:20:49;;;;;;;10.67;7.07;;;8.20;1.00;8.50;100877.00;;;;5014149;28;20458;-79
2022/02/24 00:23:18;;;;;;;15.53;8.27;;;8.20;1.00;8.50;100877.00;;;;5012691;28;21089;-79
2022/02/24 00:25:47;;;;;;;10.50;7.10;;;8.20;1.00;8.50;100878.00;;;;5014717;28;20512;-79
2022/02/24 00:28:16;;;;;;;11.30;7.63;;;8.30;1.00;8.50;68131.00;;;;5026872;28;20495;-79
2022/02/24 00:30:45;;;;;;;13.17;8.83;;;8.50;1.00;8.60;68156.00;;;;5010457;28;20457;-79
2022/02/24 00:33:14;;;;;;;10.60;8.40;;;8.30;1.00;8.50;100883.00;;;;5028672;28;20483;-79
2022/02/24 00:35:45;;;;;;;16.40;8.20;;;8.50;1.00;8.50;100863.00;;;;5031280;28;20473;-80
2022/02/24 00:38:15;;;;;;;13.53;9.13;;;8.30;1.00;217.30;160355.00;;;;5019114;28;21045;-79
2022/02/24 00:40:44;;;;;;;13.40;10.10;;;8.20;1.00;8.40;100869.00;;;;5020559;28;20468;-79
2022/02/24 00:43:13;;;;;;;9.63;7.27;;;8.10;1.00;8.40;100856.00;;;;5031200;28;20481;-79
2022/02/24 00:45:42;;;;;;;12.27;9.10;;;8.10;1.00;8.40;100862.00;;;;5013969;28;20488;-80
2022/02/24 00:48:13;;;;;;;11.03;8.50;;;8.00;1.00;8.30;100853.00;;;;5025914;28;20457;-79
2022/02/24 00:50:43;;;;;;;13.60;7.70;;;8.00;1.00;8.30;100869.00;;;;5013907;28;20449;-80
2022/02/24 00:53:15;;;;;;;17.73;8.83;;;8.00;1.00;217.30;160224.00;;;;5010063;28;20508;-80
2022/02/24 00:55:45;;;;;;;13.17;8.90;;;8.00;1.00;8.40;100833.00;;;;5029916;28;20475;-79
2022/02/24 00:58:16;;;;;;;15.70;7.97;;;8.10;1.00;8.40;100828.00;;;;5012060;28;20461;-80
2022/02/24 01:00:53;;;;;;;9.23;7.80;;;8.10;1.00;8.40;100860.00;;;;5009410;28;20460;-79
2022/02/24 01:03:23;;;;;;;16.83;9.33;;;8.10;1.00;8.40;100791.00;;;;5012762;28;20477;-79
2022/02/24 01:05:55;;;;;;;14.90;9.03;;;8.10;1.00;52.70;160291.00;;;;5015232;28;20472;-80
2022/02/24 01:08:25;;;;;;;14.03;9.63;;;8.10;1.00;8.40;100829.00;;;;5012982;28;21016;-79
2022/02/24 01:10:53;;;;;;;11.07;8.60;;;8.10;1.00;8.40;100822.00;;;;5013062;28;20467;-80
2022/02/24 01:13:23;;;;;;;14.00;8.80;;;8.10;1.00;52.70;160329.00;;;;5012164;28;20473;-79
2022/02/24 01:15:52;;;;;;;13.03;9.20;;;8.20;1.00;52.70;160339.00;;;;5011728;28;20558;-79
2022/02/24 01:18:22;;;;;;;14.97;10.10;;;8.20;1.00;8.40;100846.00;;;;5029671;28;20458;-77
2022/02/24 01:20:51;;;;;;;12.13;8.00;;;8.20;1.00;217.30;160313.00;;;;5019041;28;20567;-79
2022/02/24 01:23:22;;;;;;;13.20;7.60;;;8.20;1.00;8.40;68087.00;;;;5017331;28;20508;-79
2022/02/24 01:25:51;;;;;;;13.77;9.80;;;8.40;1.00;8.40;100804.00;;;;5018266;28;20827;-78
2022/02/24 01:28:20;;;;;;;13.73;8.47;;;8.40;1.00;8.40;100820.00;;;;5017548;28;20453;-79
2022/02/24 01:30:48;;;;;;;14.00;8.80;;;8.10;1.00;52.70;160275.00;;;;5017946;28;20485;-81
2022/02/24 01:33:17;;;;;;;12.10;7.30;;;8.10;1.00;8.40;100787.00;;;;5018261;28;20502;-80
2022/02/24 01:35:45;;;;;;;12.80;8.20;;;8.00;1.00;8.30;100794.00;;;;5033214;28;20454;-81
2022/02/24 01:38:13;;;;;;;11.63;7.60;;;8.00;1.00;8.30;100803.00;;;;5032418;28;20461;-80
2022/02/24 01:40:41;;;;;;;10.60;7.87;;;8.00;1.00;8.20;100794.00;;;;5018215;28;21264;-80
2022/02/24 01:43:11;;;;;;;10.27;6.80;;;7.90;1.00;8.30;100774.00;;;;5018258;28;20476;-77
2022/02/24 01:45:41;;;;;;;12.77;7.53;;;8.00;1.00;8.30;100775.00;;;;5023142;28;20452;-79
2022/02/24 01:48:10;;;;;;;15.93;8.27;;;7.70;1.00;217.30;160198.00;;;;5018237;28;20460;-80
2022/02/24 01:50:39;;;;;;;11.77;7.33;;;8.00;1.00;217.30;160230.00;;;;5017926;28;20456;-80
2022/02/24 01:53:08;;;;;;;10.63;7.40;;;7.90;1.00;8.40;100760.00;;;;5019512;28;20477;-80
2022/02/24 01:55:37;;;;;;;11.50;6.87;;;8.00;1.00;8.40;100762.00;;;;5022074;28;20479;-79
2022/02/24 01:58:09;;;;;;;9.60;7.17;;;8.00;1.00;8.40;100760.00;;;;5017615;28;20483;-79
2022/02/24 02:00:42;;;;;;;8.27;7.37;;;8.10;1.00;8.40;100685.00;;;;5023747;28;20456;-79
2022/02/24 02:03:12;;;;;;;9.40;6.83;;;8.10;1.00;8.40;100752.00;;;;5030190;28;20476;-79
2022/02/24 02:05:41;;;;;;;10.50;6.80;;;8.10;1.00;8.30;68107.00;;;;5025213;28;20491;-80
2022/02/24 02:08:10;;;;;;;11.33;6.93;;;8.20;1.00;8.10;68148.00;;;;5030649;28;20526;-79
2022/02/24 02:10:40;;;;;;;12.70;6.97;;;7.90;1.00;8.60;68152.00;;;;5025592;28;20508;-80
2022/02/24 02:13:09;;;;;;;10.43;7.03;;;8.30;1.00;8.60;100648.00;;;;5018494;28;20482;-80
2022/02/24 02:15:38;;;;;;;11.20;7.77;;;8.30;1.00;8.60;68156.00;;;;5038309;28;21116;-79
2022/02/24 02:18:08;;;;;;;11.47;7.20;;;8.30;1.00;8.60;100724.00;;;;5025104;28;20539;-78
2022/02/24 02:20:40;;;;;;;8.20;6.27;;;8.30;1.00;217.30;160297.00;;;;5032061;28;20464;-79
2022/02/24 02:23:09;;;;;;;9.07;6.00;;;8.30;1.00;217.30;160323.00;;;;5034503;28;20491;-80
2022/02/24 02:25:39;;;;;;;11.47;6.30;;;8.30;1.00;8.70;100655.00;;;;5018918;28;20564;-80
2022/02/24 02:28:08;;;;;;;7.73;5.63;;;8.30;1.00;8.70;100729.00;;;;5026546;28;20462;-78
2022/02/24 02:30:37;;;;;;;8.30;6.63;;;8.30;1.00;8.70;100711.00;;;;5019356;28;20448;-80
2022/02/24 02:33:05;;;;;;;10.10;7.10;;;8.40;1.00;8.80;100711.00;;;;5020769;28;21033;-80
2022/02/24 02:35:34;;;;;;;8.70;6.17;;;8.40;1.00;8.70;100710.00;;;;5036292;28;20592;-79
2022/02/24 02:38:04;;;;;;;9.27;6.17;;;8.40;1.00;8.80;100716.00;;;;5018300;28;20476;-80
2022/02/24 02:40:37;;;;;;;9.63;7.00;;;8.40;1.00;8.70;100720.00;;;;5020409;28;20457;-79
2022/02/24 02:43:06;;;;;;;10.70;6.60;;;8.40;1.00;8.70;100698.00;;;;5016524;28;20489;-80
2022/02/24 02:45:35;;;;;;;12.37;7.23;;;8.40;1.00;8.60;100691.00;;;;5025258;28;20587;-80
2022/02/24 02:48:05;;;;;;;9.63;5.97;;;8.30;1.00;8.60;68152.00;;;;5016740;28;20866;-79
2022/02/24 02:50:33;;;;;;;10.10;6.80;;;8.20;1.00;8.60;100683.00;;;;5033659;28;20464;-80
2022/02/24 02:53:04;;;;;;;15.20;7.10;;;8.10;1.00;8.60;100694.00;;;;5013321;28;20543;-79
2022/02/24 02:55:32;;;;;;;9.70;6.20;;;8.10;1.00;8.60;100679.00;;;;5016947;28;20795;-79
2022/02/24 02:58:01;;;;;;;8.53;6.57;;;8.10;1.00;8.60;100694.00;;;;5021721;28;20559;-78
2022/02/24 03:00:29;;;;;;;12.70;6.37;;;8.20;1.00;8.60;100682.00;;;;5016042;28;20464;-79
2022/02/24 03:02:58;;;;;;;7.90;6.07;;;8.20;1.00;8.50;100695.00;;;;5020992;28;20473;-79
2022/02/24 03:05:26;;;;;;;7.70;6.37;;;8.10;1.00;8.50;100687.00;;;;5015299;28;20828;-80
2022/02/24 03:07:55;;;;;;;9.60;7.10;;;8.10;1.00;8.50;100690.00;;;;5014028;28;20472;-80
2022/02/24 03:10:24;;;;;;;11.07;6.57;;;8.10;1.00;8.50;100682.00;;;;5016318;28;20449;-79
2022/02/24 03:12:54;;;;;;;8.97;6.97;;;8.10;1.00;8.60;100670.00;;;;5031642;28;20509;-79
2022/02/24 03:15:22;;;;;;;13.30;6.90;;;8.10;1.00;8.60;100669.00;;;;5014311;28;20465;-79
2022/02/24 03:17:51;;;;;;;11.10;6.93;;;8.20;1.00;8.60;100669.00;;;;5019654;28;20488;-78
2022/02/24 03:20:19;;;;;;;9.53;6.90;;;8.30;1.00;8.60;100661.00;;;;5016002;28;20461;-78
2022/02/24 03:22:47;;;;;;;11.57;6.10;;;8.30;1.00;8.70;100653.00;;;;5016578;28;20481;-79
2022/02/24 03:25:16;;;;;;;10.03;7.50;;;8.40;1.00;8.70;100656.00;;;;5032196;28;20456;-78
2022/02/24 03:27:45;;;;;;;7.93;6.30;;;8.30;1.00;8.60;100648.00;;;;5020020;28;20471;-78
2022/02/24 03:30:14;;;;;;;7.40;6.17;;;8.20;1.00;8.60;100654.00;;;;5016151;28;20492;-79
2022/02/24 03:32:43;;;;;;;10.07;6.50;;;8.20;1.00;8.60;100633.00;;;;5018102;28;20496;-78
2022/02/24 03:35:12;;;;;;;15.30;7.80;;;8.20;1.00;8.60;100649.00;;;;5018896;28;20477;-78
2022/02/24 03:37:40;;;;;;;8.50;6.50;;;8.10;1.00;8.60;100639.00;;;;5023339;28;20483;-79
2022/02/24 03:40:11;;;;;;;11.80;7.03;;;8.20;1.00;8.60;100633.00;;;;5018181;28;20457;-78
2022/02/24 03:42:40;;;;;;;12.23;6.70;;;8.10;1.00;8.50;100645.00;;;;5017909;28;20488;-79
2022/02/24 03:45:11;;;;;;;11.10;6.93;;;8.20;1.00;8.60;100646.00;;;;5016184;28;20460;-78
2022/02/24 03:47:39;;;;;;;9.70;6.53;;;8.20;1.00;8.50;100643.00;;;;5022382;28;20464;-78
2022/02/24 03:50:11;;;;;;;12.07;6.73;;;8.10;1.00;8.60;100634.00;;;;5031106;28;20715;-78
2022/02/24 03:52:41;;;;;;;7.70;6.37;;;8.20;1.00;8.50;100618.00;;;;5033331;28;20496;-78
2022/02/24 03:55:11;;;;;;;9.13;6.80;;;8.20;1.00;8.50;100628.00;;;;5037206;28;20443;-78
2022/02/24 03:57:39;;;;;;;9.33;6.60;;;8.10;1.00;8.50;100622.00;;;;5033270;28;20509;-78
2022/02/24 04:00:11;;;;;;;11.07;7.37;;;8.10;1.00;8.60;100636.00;;;;5030049;28;20466;-78
2022/02/24 04:02:43;;;;;;;8.20;6.43;;;8.10;1.00;8.50;100619.00;;;;5028530;28;20512;-78
2022/02/24 04:05:13;;;;;;;8.63;7.30;;;8.10;1.00;8.50;100624.00;;;;5042504;28;20611;-78
2022/02/24 04:07:42;;;;;;;8.50;6.60;;;8.00;1.00;8.50;100614.00;;;;5033337;28;20845;-79
2022/02/24 04:10:11;;;;;;;11.30;7.13;;;8.00;1.00;8.50;100602.00;;;;5022860;28;20465;-79
2022/02/24 04:12:41;;;;;;;10.27;7.30;;;8.00;1.00;8.50;100601.00;;;;5018827;28;20561;-78
2022/02/24 04:15:11;;;;;;;9.47;7.47;;;8.00;1.00;8.50;100600.00;;;;5032780;28;20469;-79
2022/02/24 04:17:39;;;;;;;9.07;6.83;;;8.10;1.00;8.50;100600.00;;;;5024103;28;20477;-79
2022/02/24 04:20:10;;;;;;;11.00;7.40;;;8.10;1.00;8.50;100607.00;;;;5032493;28;20461;-78
2022/02/24 04:22:38;;;;;;;11.80;7.27;;;8.10;1.00;8.50;100607.00;;;;5023054;28;20536;-79
2022/02/24 04:25:10;;;;;;;9.33;7.43;;;8.40;1.00;8.50;100600.00;;;;5032078;28;20450;-78
2022/02/24 04:27:47;;;;;;;12.17;7.53;;;8.50;1.00;8.50;100601.00;;;;5035683;28;20528;-78
2022/02/24 04:30:19;;;;;;;11.57;7.37;;;8.10;1.00;8.50;100588.00;;;;5029741;28;20449;-78
2022/02/24 04:32:48;;;;;;;14.07;7.80;;;8.10;1.00;8.50;100593.00;;;;5030876;28;20484;-78
2022/02/24 04:35:17;;;;;;;10.93;7.40;;;8.50;1.00;8.60;100600.00;;;;5039490;28;20446;-79
2022/02/24 04:37:45;;;;;;;12.93;7.50;;;8.20;1.00;8.60;100579.00;;;;5032164;28;20470;-78
2022/02/24 04:40:16;;;;;;;11.50;8.30;;;8.20;1.00;8.60;100583.00;;;;5035201;28;20480;-78
2022/02/24 04:42:45;;;;;;;11.90;7.80;;;8.20;1.00;8.60;100570.00;;;;5041235;28;20548;-78
2022/02/24 04:45:16;;;;;;;14.47;8.20;;;8.20;1.00;8.60;100557.00;;;;5032393;28;20463;-80
2022/02/24 04:47:45;;;;;;;11.50;7.43;;;8.20;1.00;8.50;100563.00;;;;5034012;28;20453;-78
2022/02/24 04:50:16;;;;;;;8.67;6.63;;;8.10;1.00;8.50;100567.00;;;;5031278;28;20453;-79
2022/02/24 04:52:44;;;;;;;9.33;6.93;;;8.10;1.00;8.50;100565.00;;;;5040499;28;20551;-79
2022/02/24 04:55:12;;;;;;;9.60;7.73;;;8.10;1.00;8.50;100555.00;;;;5036775;28;21057;-79
2022/02/24 04:57:41;;;;;;;11.67;7.47;;;8.10;1.00;8.50;100529.00;;;;5025216;28;21361;-80
2022/02/24 05:00:11;;;;;;;10.37;7.00;;;8.10;1.00;8.50;100548.00;;;;5019175;28;20450;-78
2022/02/24 05:02:40;;;;;;;11.07;7.70;;;8.00;1.00;8.50;100525.00;;;;5011840;28;20506;-80
2022/02/24 05:05:09;;;;;;;9.93;7.50;;;8.40;1.00;8.50;68152.00;;;;5012773;28;20463;-79
2022/02/24 05:07:38;;;;;;;9.20;7.93;;;8.20;1.00;8.50;100537.00;;;;5023069;28;20472;-80
2022/02/24 05:10:08;;;;;;;12.10;8.07;;;8.20;1.00;8.60;100543.00;;;;5017565;28;20552;-80
2022/02/24 05:12:36;;;;;;;11.63;9.03;;;8.20;1.00;8.60;100533.00;;;;5021672;28;20504;-79
2022/02/24 05:15:05;;;;;;;8.87;7.30;;;8.30;1.00;8.60;100524.00;;;;5022605;28;20457;-80
2022/02/24 05:17:35;;;;;;;10.70;8.07;;;8.30;1.00;8.70;100546.00;;;;5022696;28;20488;-81
2022/02/24 05:20:07;;;;;;;12.47;7.67;;;8.30;1.00;8.70;100528.00;;;;5011185;28;20483;-79
2022/02/24 05:22:37;;;;;;;12.80;7.90;;;8.30;1.00;8.70;100516.00;;;;5017343;28;21045;-81
2022/02/24 05:25:07;;;;;;;10.87;8.73;;;8.50;1.00;8.70;100519.00;;;;5029157;28;20450;-80
2022/02/24 05:27:35;;;;;;;13.40;7.77;;;8.10;1.00;8.60;100516.00;;;;5031730;28;20500;-80
2022/02/24 05:30:05;;;;;;;11.50;8.17;;;8.30;1.00;8.70;100504.00;;;;5016246;28;20458;-80
2022/02/24 05:32:34;;;;;;;11.60;8.47;;;8.30;1.00;8.70;100511.00;;;;5014156;28;21325;-80
2022/02/24 05:35:05;;;;;;;13.10;8.90;;;8.30;1.00;8.70;100495.00;;;;5015860;28;20511;-80
2022/02/24 05:37:34;;;;;;;11.30;7.77;;;8.30;1.00;8.80;100508.00;;;;5014309;28;20492;-80
2022/02/24 05:40:05;;;;;;;10.30;7.93;;;8.40;1.00;8.70;100493.00;;;;5014951;28;20880;-79
2022/02/24 05:42:34;;;;;;;9.43;8.43;;;8.40;1.00;8.70;100484.00;;;;5020282;28;20548;-80
2022/02/24 05:45:02;;;;;;;10.07;8.53;;;8.40;1.00;8.70;100474.00;;;;5016286;28;20514;-79
2022/02/24 05:47:31;;;;;;;11.83;8.60;;;8.40;1.00;8.80;100495.00;;;;5031328;28;20465;-80
2022/02/24 05:49:59;;;;;;;11.33;8.13;;;8.40;1.00;8.80;100488.00;;;;5015621;28;20453;-79
2022/02/24 05:52:28;;;;;;;12.43;8.70;;;8.40;1.00;8.80;100473.00;;;;5038261;28;20970;-80
2022/02/24 05:55:02;;;;;;;10.40;8.53;;;8.40;1.00;8.80;100480.00;;;;5014664;28;20457;-81
2022/02/24 05:57:31;;;;;;;13.13;7.87;;;8.40;1.00;8.80;100475.00;;;;5016043;28;20477;-80
2022/02/24 06:00:00;;;;;;;13.03;8.10;;;8.50;1.00;8.90;100489.00;;;;5015756;28;20479;-79
2022/02/24 06:02:28;;;;;;;10.80;7.40;;;8.50;1.00;8.80;100480.00;;;;5021297;28;20476;-79
2022/02/24 06:04:57;;;;;;;11.37;8.13;;;8.50;1.00;8.80;100492.00;;;;5028614;28;20457;-80
2022/02/24 06:07:25;;;;;;;17.40;8.77;;;8.50;1.00;8.90;100482.00;;;;5041652;28;20482;-79
2022/02/24 06:09:55;;;;;;;12.73;7.77;;;8.60;1.00;8.90;100489.00;;;;5034573;28;20456;-80
2022/02/24 06:12:23;;;;;;;9.47;7.73;;;8.60;1.00;8.90;100485.00;;;;5020161;28;20496;-80
2022/02/24 06:14:52;;;;;;;11.93;8.20;;;8.60;1.00;8.90;100489.00;;;;5019531;28;20989;-80
2022/02/24 06:17:21;;;;;;;14.17;8.40;;;8.60;1.00;8.90;100482.00;;;;5027318;28;20467;-80
2022/02/24 06:19:49;;;;;;;11.73;8.50;;;8.50;1.00;8.90;100478.00;;;;5034627;28;20484;-79
2022/02/24 06:22:17;;;;;;;14.93;9.40;;;8.50;1.00;8.90;100478.00;;;;5024579;28;21019;-81
2022/02/24 06:24:46;;;;;;;14.23;8.93;;;8.50;1.00;8.90;100485.00;;;;5020597;28;21083;-79
2022/02/24 06:27:16;;;;;;;10.50;7.97;;;8.60;1.00;8.90;100451.00;;;;5020076;28;20454;-80
2022/02/24 06:29:44;;;;;;;13.90;8.17;;;8.60;1.00;8.90;100471.00;;;;5019766;28;20464;-80
2022/02/24 06:32:14;;;;;;;11.70;8.70;;;8.60;1.00;9.00;100458.00;;;;5033721;28;20469;-80
2022/02/24 06:34:44;;;;;;;11.53;8.23;;;8.70;1.00;9.00;100466.00;;;;5017389;28;20871;-80
2022/02/24 06:37:13;;;;;;;12.70;7.87;;;8.70;1.00;9.10;100461.00;;;;5019589;28;20490;-79
2022/02/24 06:39:42;;;;;;;19.97;8.70;;;9.00;1.00;9.00;100469.00;;;;5016140;28;20481;-79
2022/02/24 06:42:11;;;;;;;14.40;8.67;;;8.70;1.00;9.10;100461.00;;;;5018752;28;20562;-78
2022/02/24 06:44:41;;;;;;;17.00;8.43;;;8.80;1.00;9.10;100463.00;;;;5034544;28;20460;-79
2022/02/24 06:47:10;;;;;;;13.17;8.73;;;8.90;1.00;9.10;100445.00;;;;5033759;28;21362;-79
2022/02/24 06:49:38;;;;;;;12.53;8.83;;;8.90;1.00;9.10;100461.00;;;;5018456;28;20972;-79
2022/02/24 06:52:07;;;;;;;14.23;8.73;;;9.00;1.00;9.20;100439.00;;;;5018892;28;20484;-81
2022/02/24 06:54:35;;;;;;;18.47;8.63;;;8.90;1.00;9.20;100449.00;;;;5022418;28;20460;-80
2022/02/24 06:57:06;;;;;;;13.97;7.73;;;8.90;1.00;9.30;100450.00;;;;5024859;28;20449;-79
2022/02/24 06:59:35;;;;;;;12.87;8.73;;;8.70;1.00;9.30;100442.00;;;;5015572;28;20575;-79
2022/02/24 07:02:07;;;;;;;11.50;8.50;;;9.00;1.00;9.30;100404.00;;;;5017845;28;20477;-80
2022/02/24 07:04:36;;;;;;;17.00;8.83;;;9.00;1.00;9.30;100433.00;;;;5034278;28;20464;-81
2022/02/24 07:07:05;;;;;;;15.60;8.67;;;9.10;1.00;9.40;100449.00;;;;5015797;28;20543;-80
2022/02/24 07:09:34;;;;;;;15.17;7.93;;;9.10;1.00;9.40;100429.00;;;;5018488;28;20453;-80
2022/02/24 07:12:03;;;;;;;12.23;8.50;;;9.10;1.00;9.40;100441.00;;;;5017629;28;20479;-82
2022/02/24 07:14:31;;;;;;;14.90;9.13;;;9.10;1.00;9.50;100425.00;;;;5017357;28;20973;-79
2022/02/24 07:16:59;;;;;;;13.90;9.43;;;9.20;1.00;9.50;100427.00;;;;5016484;28;21187;-83
2022/02/24 07:19:29;;;;;;;18.30;9.43;;;9.20;1.00;9.50;100429.00;;;;5017150;28;20493;-80
2022/02/24 07:21:57;;;;;;;14.07;8.53;;;9.30;1.00;9.60;100412.00;;;;5016800;28;20461;-82
2022/02/24 07:24:26;;;;;;;13.47;9.00;;;9.30;1.00;9.50;100426.00;;;;5019222;28;20550;-79
2022/02/24 07:26:54;;;;;;;12.40;8.70;;;9.30;1.00;9.60;100435.00;;;;5023662;28;20468;-80
2022/02/24 07:29:22;;;;;;;14.90;8.43;;;9.30;1.00;9.60;100440.00;;;;5016437;28;20810;-80
2022/02/24 07:31:50;;;;;;;13.27;8.30;;;9.40;1.00;9.60;100444.00;;;;5018010;28;20472;-79
2022/02/24 07:34:19;;;;;;;14.50;8.87;;;9.40;1.00;9.60;100440.00;;;;5016959;28;20506;-80
2022/02/24 07:36:50;;;;;;;13.87;8.20;;;9.70;1.00;9.60;100428.00;;;;5019194;28;20876;-80
2022/02/24 07:39:20;;;;;;;13.47;8.67;;;9.40;1.00;9.60;100437.00;;;;5025189;28;20460;-81
2022/02/24 07:41:49;;;;;;;15.03;8.87;;;9.40;1.00;9.70;100431.00;;;;5017231;28;20468;-81
2022/02/24 07:44:17;;;;;;;17.53;10.73;;;9.50;1.00;9.70;100431.00;;;;5015885;28;20452;-79
2022/02/24 07:46:46;;;;;;;12.63;9.10;;;9.50;1.00;9.70;100424.00;;;;5018589;28;20590;-79
2022/02/24 07:49:15;;;;;;;13.00;9.10;;;9.50;1.00;9.70;100418.00;;;;5017645;28;20452;-79
2022/02/24 07:51:47;;;;;;;22.13;9.03;;;9.50;1.00;9.80;100398.00;;;;5015633;28;20454;-79
2022/02/24 07:54:17;;;;;;;18.57;9.20;;;9.70;1.00;10.00;100400.00;;;;5017102;28;20484;-78
2022/02/24 07:56:46;;;;;;;12.03;8.87;;;9.70;1.00;10.10;100393.00;;;;5017605;28;20458;-77
2022/02/24 07:59:15;;;;;;;16.13;9.13;;;9.80;1.00;10.10;100412.00;;;;5016147;28;20445;-78
2022/02/24 08:01:43;;;;;;;19.50;9.30;;;9.90;1.00;10.10;100394.00;;;;5015939;28;20457;-81
2022/02/24 08:04:12;;;;;;;16.87;9.00;;;9.90;1.00;10.20;100394.00;;;;5016894;28;20446;-77
2022/02/24 08:06:41;;;;;;;16.93;9.80;;;10.00;1.00;10.20;100406.00;;;;5015454;28;20467;-81
2022/02/24 08:09:10;;;;;;;10.37;7.70;;;10.00;1.00;10.20;100383.00;;;;5015101;28;20457;-78
2022/02/24 08:11:40;;;;;;;15.00;9.30;;;10.40;1.00;10.20;100391.00;;;;5033394;28;20458;-78
2022/02/24 08:14:08;;;;;;;11.67;8.80;;;10.10;1.00;10.40;100390.00;;;;5019895;28;20442;-78
2022/02/24 08:16:37;;;;;;;15.67;9.57;;;10.10;1.00;10.40;100392.00;;;;5017363;28;20643;-78
2022/02/24 08:19:05;;;;;;;11.80;9.07;;;10.20;1.00;10.40;100381.00;;;;5016096;28;20478;-78
2022/02/24 08:21:33;;;;;;;15.97;8.77;;;10.20;1.00;10.40;100384.00;;;;5018194;28;21305;-80
2022/02/24 08:24:02;;;;;;;16.37;9.00;;;10.20;1.00;10.40;100375.00;;;;5017332;28;20581;-80
2022/02/24 08:26:30;;;;;;;11.27;8.17;;;10.20;1.00;10.40;100379.00;;;;5039847;28;20468;-78
2022/02/24 08:29:00;;;;;;;20.43;9.87;;;10.20;1.00;10.40;100387.00;;;;5018142;28;20453;-79
2022/02/24 08:31:29;;;;;;;16.50;9.00;;;10.10;1.00;10.40;100359.00;;;;5047246;28;20490;-81
2022/02/24 08:33:57;;;;;;;13.67;9.57;;;10.00;1.00;10.40;100367.00;;;;5034355;28;20931;-79
2022/02/24 08:36:26;;;;;;;11.87;9.20;;;10.10;1.00;10.30;100358.00;;;;5029557;28;20449;-79
2022/02/24 08:38:55;;;;;;;12.30;8.80;;;9.90;1.00;10.40;100369.00;;;;5036894;28;20555;-79
2022/02/24 08:41:43;;;;;;;10.73;8.90;;;10.00;1.00;10.40;100382.00;;;;5031357;28;20513;-78
2022/02/24 08:44:14;;;;;;;12.13;8.33;;;10.10;1.00;10.50;100362.00;;;;5032179;28;20457;-80
2022/02/24 08:46:46;;;;;;;13.20;9.50;;;10.20;1.00;10.50;68601.00;;;;5047395;28;21053;-78
2022/02/24 08:49:15;;;;;;;13.73;9.00;;;10.30;1.00;10.60;100350.00;;;;5031112;28;20527;-79
2022/02/24 08:51:44;;;;;;;14.50;8.60;;;10.40;1.00;10.70;100322.00;;;;5035256;28;20484;-83
2022/02/24 08:54:14;;;;;;;13.70;8.80;;;10.40;1.00;10.80;100347.00;;;;5027209;28;20493;-79
2022/02/24 08:56:44;;;;;;;22.10;9.33;;;10.50;1.00;10.90;100341.00;;;;5022223;28;20449;-79
2022/02/24 08:59:14;;;;;;;15.73;9.47;;;10.70;1.00;10.90;100308.00;;;;5025433;28;21142;-80
2022/02/24 09:01:43;;;;;;;13.00;8.97;;;10.70;1.00;11.00;100368.00;;;;5020306;28;20485;-80
2022/02/24 09:04:13;;;;;;;19.03;8.83;;;10.80;1.00;11.00;100336.00;;;;5023936;28;20551;-79
2022/02/24 09:06:42;;;;;;;14.23;9.10;;;10.90;1.00;11.10;100337.00;;;;5022925;28;20464;-80
2022/02/24 09:09:10;;;;;;;15.93;9.63;;;10.90;1.00;11.10;100308.00;;;;5022998;28;20483;-80
2022/02/24 09:11:39;;;;;;;16.30;9.27;;;10.90;1.00;11.20;100289.00;;;;5029570;28;20467;-81
2022/02/24 09:14:07;;;;;;;16.60;9.47;;;11.00;1.00;11.30;100320.00;;;;5029260;28;20460;-81
2022/02/24 09:16:38;;;;;;;14.57;8.93;;;11.10;1.00;11.60;100313.00;;;;5029938;28;20499;-80
2022/02/24 09:19:06;;;;;;;15.30;8.90;;;11.40;1.00;11.90;100288.00;;;;5021383;28;20457;-79
2022/02/24 09:21:37;;;;;;;13.47;7.80;;;11.70;1.00;12.00;100291.00;;;;5022377;28;20470;-78
2022/02/24 09:24:07;;;;;;;20.30;8.93;;;11.90;1.00;12.30;100292.00;;;;5039357;28;20475;-79
2022/02/24 09:26:36;;;;;;;13.50;8.30;;;12.10;1.00;12.40;100302.00;;;;5025835;28;20527;-79
2022/02/24 09:29:05;;;;;;;9.97;7.33;;;12.30;1.00;12.50;100277.00;;;;5025782;28;20453;-79
2022/02/24 09:31:35;;;;;;;11.40;7.43;;;12.40;1.00;12.50;100283.00;;;;5028989;28;20564;-80
2022/02/24 09:34:05;;;;;;;16.60;8.60;;;12.40;1.00;12.60;100260.00;;;;5031232;28;20823;-79
2022/02/24 09:36:33;;;;;;;14.20;7.97;;;12.50;1.00;12.60;100287.00;;;;5023852;28;20457;-78
2022/02/24 09:39:02;;;;;;;11.13;7.67;;;12.50;1.00;12.50;100285.00;;;;5037347;28;20471;-79
2022/02/24 09:41:30;;;;;;;14.00;7.57;;;12.40;1.00;12.50;100279.00;;;;5020486;28;20555;-82
2022/02/24 09:44:00;;;;;;;10.33;7.10;;;12.40;1.00;12.60;100268.00;;;;5025532;28;20491;-80
2022/02/24 09:46:30;;;;;;;10.93;7.97;;;12.40;1.00;12.60;100255.00;;;;5024023;28;20496;-79
2022/02/24 09:49:05;;;;;;;13.03;7.77;;;12.90;1.00;12.80;100252.00;;;;5023676;28;20450;-78
2022/02/24 09:51:34;;;;;;;13.97;7.70;;;12.60;1.00;12.90;100236.00;;;;5026459;28;20458;-79
2022/02/24 09:54:02;;;;;;;12.90;6.87;;;12.80;1.00;13.20;100247.00;;;;5021094;28;20564;-81
2022/02/24 09:56:31;;;;;;;9.60;6.67;;;13.10;1.00;13.30;100252.00;;;;5030460;28;20472;-81
2022/02/24 09:59:01;;;;;;;10.53;6.70;;;13.20;1.00;13.40;100230.00;;;;5031624;28;20510;-83
2022/02/24 10:01:29;;;;;;;16.43;8.27;;;13.30;1.00;13.60;100241.00;;;;5028103;28;20526;-79
2022/02/24 10:04:00;;;;;;;11.13;7.90;;;13.50;1.00;13.50;100237.00;;;;5020293;28;20477;-81
2022/02/24 10:06:40;;;;;;;13.97;7.47;;;13.60;1.00;13.60;100233.00;;;;5019752;28;20483;-79
2022/02/24 10:09:10;;;;;;;12.00;8.20;;;13.60;1.00;13.50;100230.00;;;;5018641;28;20508;-81
2022/02/24 10:11:40;;;;;;;12.80;7.30;;;13.50;1.00;13.50;100233.00;;;;5018238;28;20463;-81
2022/02/24 10:14:11;;;;;;;14.30;7.20;;;13.80;1.00;13.50;100224.00;;;;5027567;28;20458;-80
2022/02/24 10:16:56;;;;;;;11.93;7.80;;;13.50;1.00;13.60;100223.00;;;;5021369;28;20452;-80
2022/02/24 10:19:32;;;;;;;13.70;6.70;;;13.60;1.00;13.70;100217.00;;;;5033537;28;20549;-81
2022/02/24 10:22:14;;;;;;;8.47;5.73;;;13.80;1.00;13.60;100187.00;;;;5019085;28;20572;-79
2022/02/24 10:24:44;;;;;;;8.07;5.70;;;13.40;1.00;13.50;100182.00;;;;5018129;28;20441;-80
2022/02/24 10:27:22;;;;;;;6.37;5.03;;;13.30;1.00;13.40;100193.00;;;;5020254;28;20453;-83
2022/02/24 10:30:07;;;;;;;7.27;5.20;;;13.20;1.00;13.30;100175.00;;;;5020797;28;20481;-80
2022/02/24 10:32:38;;;;;;;8.43;5.50;;;13.00;1.00;13.40;100187.00;;;;5026323;28;20559;-79
2022/02/24 10:35:24;;;;;;;7.60;5.10;;;13.10;1.00;13.50;100163.00;;;;5040101;28;20437;-83
2022/02/24 10:38:08;;;;;;;9.80;5.73;;;13.20;1.00;13.50;100184.00;;;;5039930;28;20559;-80
2022/02/24 10:40:40;;;;;;;9.90;4.77;;;13.20;1.00;13.50;100168.00;;;;5024341;28;21119;-80
2022/02/24 10:43:20;;;;;;;7.23;5.13;;;13.20;1.00;13.60;100173.00;;;;5018660;28;21575;-79
2022/02/24 10:46:00;;;;;;;6.47;4.57;;;13.20;1.00;13.70;100166.00;;;;5016576;28;20459;-80
2022/02/24 10:48:30;;;;;;;7.80;5.20;;;13.40;1.00;13.90;100169.00;;;;5021631;28;20476;-80
2022/02/24 10:51:01;;;;;;;5.80;4.10;;;13.60;1.00;13.90;100166.00;;;;5021178;28;21183;-79
2022/02/24 10:53:34;;;;;;;9.13;5.70;;;13.70;1.00;13.70;100139.00;;;;5033655;28;20880;-81
2022/02/24 10:56:07;;;;;;;7.53;4.50;;;13.30;1.00;13.80;100133.00;;;;5017663;28;20821;-83
2022/02/24 10:58:39;;;;;;;6.80;4.47;;;13.40;1.00;13.70;100122.00;;;;5019244;28;20456;-81
2022/02/24 11:01:15;;;;;;;11.30;5.40;;;13.50;1.00;13.80;100120.00;;;;5020687;28;20524;-80
2022/02/24 11:03:47;;;;;;;8.20;4.60;;;13.40;1.00;14.00;100115.00;;;;5024288;28;20580;-80
2022/02/24 11:06:20;;;;;;;6.53;4.00;;;13.60;1.00;14.00;100128.00;;;;5018211;28;20450;-81
2022/02/24 11:08:52;;;;;;;6.90;4.50;;;13.60;1.00;14.10;100111.00;;;;5018000;28;20468;-80
2022/02/24 11:11:24;;;;;;;6.43;4.53;;;13.80;1.00;14.40;100107.00;;;;5020339;28;20441;-83